Aviation Digital Data Service (ADDS)

Output produced by METARs form (0358 UTC 19 August 2019)
found at http://www.aviationweather.gov/metar/data/
 
METAR text: PTPN 190350Z 31006KT 15SM BKN018 OVC300 31/25 A2977 RMK LAST
Conditions at: PTPN (POHNPEI AIRPORT , FM) observed 0350 UTC 19 August 2019
Temperature: 31.0°C (88°F)
Dewpoint: 25.0°C (77°F) [RH = 71%]
Pressure (altimeter): 29.77 inches Hg (1008.2 mb)
Winds: from the NW (310 degrees) at 7 MPH (6 knots; 3.1 m/s)
Visibility: 15 miles (24 km)
Ceiling: 1800 feet AGL
Clouds: broken clouds at 1800 feet AGL
overcast cloud deck at 30000 feet AGL
Weather: no significant weather observed at this time

METAR text: PTPN 190250Z 31007KT 15SM BKN018 OVC300 31/25 A2977
Conditions at: PTPN (POHNPEI AIRPORT , FM) observed 0250 UTC 19 August 2019
Temperature: 31.0°C (88°F)
Dewpoint: 25.0°C (77°F) [RH = 71%]
Pressure (altimeter): 29.77 inches Hg (1008.2 mb)
Winds: from the NW (310 degrees) at 8 MPH (7 knots; 3.6 m/s)
Visibility: 15 miles (24 km)
Ceiling: 1800 feet AGL
Clouds: broken clouds at 1800 feet AGL
overcast cloud deck at 30000 feet AGL
Weather: no significant weather observed at this time

METAR text: PTPN 190050Z 30007KT 15SM BKN018 OVC300 31/25 A2980
Conditions at: PTPN (POHNPEI AIRPORT , FM) observed 0050 UTC 19 August 2019
Temperature: 31.0°C (88°F)
Dewpoint: 25.0°C (77°F) [RH = 71%]
Pressure (altimeter): 29.80 inches Hg (1009.2 mb)
Winds: from the WNW (300 degrees) at 8 MPH (7 knots; 3.6 m/s)
Visibility: 15 miles (24 km)
Ceiling: 1800 feet AGL
Clouds: broken clouds at 1800 feet AGL
overcast cloud deck at 30000 feet AGL
Weather: no significant weather observed at this time

METAR text: PTPN 182350Z 29005KT 15SM BKN018 OVC300 31/25 A2981
Conditions at: PTPN (POHNPEI AIRPORT , FM) observed 2350 UTC 18 August 2019
Temperature: 31.0°C (88°F)
Dewpoint: 25.0°C (77°F) [RH = 71%]
Pressure (altimeter): 29.81 inches Hg (1009.6 mb)
Winds: from the WNW (290 degrees) at 6 MPH (5 knots; 2.6 m/s)
Visibility: 15 miles (24 km)
Ceiling: 1800 feet AGL
Clouds: broken clouds at 1800 feet AGL
overcast cloud deck at 30000 feet AGL
Weather: no significant weather observed at this time

METAR text: PTPN 182250Z 27007KT 15SM SCT018 BKN130 OVC300 29/26 A2983
Conditions at: PTPN (POHNPEI AIRPORT , FM) observed 2250 UTC 18 August 2019
Temperature: 29.0°C (84°F)
Dewpoint: 26.0°C (79°F) [RH = 84%]
Pressure (altimeter): 29.83 inches Hg (1010.2 mb)
Winds: from the W (270 degrees) at 8 MPH (7 knots; 3.6 m/s)
Visibility: 15 miles (24 km)
Ceiling: 13000 feet AGL
Clouds: scattered clouds at 1800 feet AGL
broken clouds at 13000 feet AGL
overcast cloud deck at 30000 feet AGL
Weather: no significant weather observed at this time

METAR text: PTPN 182150Z 21005KT 14SM -SHRA BKN017TCU BKN130 OVC300 29/26 A2982 RMK TCU ALQDS
Conditions at: PTPN (POHNPEI AIRPORT , FM) observed 2150 UTC 18 August 2019
Temperature: 29.0°C (84°F)
Dewpoint: 26.0°C (79°F) [RH = 84%]
Pressure (altimeter): 29.82 inches Hg (1009.9 mb)
Winds: from the SSW (210 degrees) at 6 MPH (5 knots; 2.6 m/s)
Visibility: 14 miles (23 km)
Ceiling: 1700 feet AGL
Clouds: broken clouds at 1700 feet AGL
broken clouds at 13000 feet AGL
overcast cloud deck at 30000 feet AGL
Weather: -SHRA  (light rain showers)

METAR text: PTPN 182121Z 29005KT 13SM -SHRA BKN017TCU OVC300 29/26 A2981 RMK TCU ALQDS FIRST
Conditions at: PTPN (POHNPEI AIRPORT , FM) observed 2121 UTC 18 August 2019
Temperature: 29.0°C (84°F)
Dewpoint: 26.0°C (79°F) [RH = 84%]
Pressure (altimeter): 29.81 inches Hg (1009.6 mb)
Winds: from the WNW (290 degrees) at 6 MPH (5 knots; 2.6 m/s)
Visibility: 13 miles (21 km)
Ceiling: 1700 feet AGL
Clouds: broken clouds at 1700 feet AGL
overcast cloud deck at 30000 feet AGL
Weather: -SHRA  (light rain showers)

METAR text: PTPN 180450Z 27010KT 15SM BKN018TCU OVC300 28/25 A2977 RMK TCU N-SE LAST
Conditions at: PTPN (POHNPEI AIRPORT , FM) observed 0450 UTC 18 August 2019
Temperature: 28.0°C (82°F)
Dewpoint: 25.0°C (77°F) [RH = 84%]
Pressure (altimeter): 29.77 inches Hg (1008.2 mb)
Winds: from the W (270 degrees) at 12 MPH (10 knots; 5.1 m/s)
Visibility: 15 miles (24 km)
Ceiling: 1800 feet AGL
Clouds: broken clouds at 1800 feet AGL
overcast cloud deck at 30000 feet AGL
Weather: no significant weather observed at this time

METAR text: PTPN 180350Z 27008KT 10SM -SHRA BKN017TCU OVC130 28/25 A2979 RMK TCU ALQDS
Conditions at: PTPN (POHNPEI AIRPORT , FM) observed 0350 UTC 18 August 2019
Temperature: 28.0°C (82°F)
Dewpoint: 25.0°C (77°F) [RH = 84%]
Pressure (altimeter): 29.79 inches Hg (1008.9 mb)
Winds: from the W (270 degrees) at 9 MPH (8 knots; 4.1 m/s)
Visibility: 10 or more miles (16+ km)
Ceiling: 1700 feet AGL
Clouds: broken clouds at 1700 feet AGL
overcast cloud deck at 13000 feet AGL
Weather: -SHRA  (light rain showers)

METAR text: PTPN 180250Z 18006KT 15SM -RA BKN017TCU OVC300 30/26 A2978 RMK TCU E-SW
Conditions at: PTPN (POHNPEI AIRPORT , FM) observed 0250 UTC 18 August 2019
Temperature: 30.0°C (86°F)
Dewpoint: 26.0°C (79°F) [RH = 79%]
Pressure (altimeter): 29.78 inches Hg (1008.5 mb)
Winds: from the S (180 degrees) at 7 MPH (6 knots; 3.1 m/s)
Visibility: 15 miles (24 km)
Ceiling: 1700 feet AGL
Clouds: broken clouds at 1700 feet AGL
overcast cloud deck at 30000 feet AGL
Weather: -RA  (light rain)

METAR text: PTPN 180150Z 18006KT 15SM BKN018 BKN300 30/26 A2979
Conditions at: PTPN (POHNPEI AIRPORT , FM) observed 0150 UTC 18 August 2019
Temperature: 30.0°C (86°F)
Dewpoint: 26.0°C (79°F) [RH = 79%]
Pressure (altimeter): 29.79 inches Hg (1008.9 mb)
Winds: from the S (180 degrees) at 7 MPH (6 knots; 3.1 m/s)
Visibility: 15 miles (24 km)
Ceiling: 1800 feet AGL
Clouds: broken clouds at 1800 feet AGL
broken clouds at 30000 feet AGL
Weather: no significant weather observed at this time

METAR text: PTPN 180050Z 24005KT 15SM BKN018 BKN300 30/26 A2983
Conditions at: PTPN (POHNPEI AIRPORT , FM) observed 0050 UTC 18 August 2019
Temperature: 30.0°C (86°F)
Dewpoint: 26.0°C (79°F) [RH = 79%]
Pressure (altimeter): 29.83 inches Hg (1010.2 mb)
Winds: from the WSW (240 degrees) at 6 MPH (5 knots; 2.6 m/s)
Visibility: 15 miles (24 km)
Ceiling: 1800 feet AGL
Clouds: broken clouds at 1800 feet AGL
broken clouds at 30000 feet AGL
Weather: no significant weather observed at this time

METAR text: PTPN 172350Z 30007KT 15SM BKN017TCU OVC130 27/24 A2984 RMK TCU ALQDS
Conditions at: PTPN (POHNPEI AIRPORT , FM) observed 2350 UTC 17 August 2019
Temperature: 27.0°C (81°F)
Dewpoint: 24.0°C (75°F) [RH = 84%]
Pressure (altimeter): 29.84 inches Hg (1010.6 mb)
Winds: from the WNW (300 degrees) at 8 MPH (7 knots; 3.6 m/s)
Visibility: 15 miles (24 km)
Ceiling: 1700 feet AGL
Clouds: broken clouds at 1700 feet AGL
overcast cloud deck at 13000 feet AGL
Weather: no significant weather observed at this time

METAR text: PTPN 172250Z 25004KT 15SM BKN017TCU OVC130 27/24 A2984 RMK TCU ALQDS
Conditions at: PTPN (POHNPEI AIRPORT , FM) observed 2250 UTC 17 August 2019
Temperature: 27.0°C (81°F)
Dewpoint: 24.0°C (75°F) [RH = 84%]
Pressure (altimeter): 29.84 inches Hg (1010.6 mb)
Winds: from the WSW (250 degrees) at 5 MPH (4 knots; 2.1 m/s)
Visibility: 15 miles (24 km)
Ceiling: 1700 feet AGL
Clouds: broken clouds at 1700 feet AGL
overcast cloud deck at 13000 feet AGL
Weather: no significant weather observed at this time

METAR text: PTPN 172150Z 29004KT 14SM -RA BKN017TCU OVC130 27/24 A2983 RMK TCU ALQDS
Conditions at: PTPN (POHNPEI AIRPORT , FM) observed 2150 UTC 17 August 2019
Temperature: 27.0°C (81°F)
Dewpoint: 24.0°C (75°F) [RH = 84%]
Pressure (altimeter): 29.83 inches Hg (1010.2 mb)
Winds: from the WNW (290 degrees) at 5 MPH (4 knots; 2.1 m/s)
Visibility: 14 miles (23 km)
Ceiling: 1700 feet AGL
Clouds: broken clouds at 1700 feet AGL
overcast cloud deck at 13000 feet AGL
Weather: -RA  (light rain)

METAR text: PTPN 172053Z 24003KT 15SM -RA BKN017TCU OVC130 25/24 A2983 RMK TCU ALQDS
Conditions at: PTPN (POHNPEI AIRPORT , FM) observed 2053 UTC 17 August 2019
Temperature: 25.0°C (77°F)
Dewpoint: 24.0°C (75°F) [RH = 94%]
Pressure (altimeter): 29.83 inches Hg (1010.2 mb)
Winds: from the WSW (240 degrees) at 3 MPH (3 knots; 1.5 m/s)
Visibility: 15 miles (24 km)
Ceiling: 1700 feet AGL
Clouds: broken clouds at 1700 feet AGL
overcast cloud deck at 13000 feet AGL
Weather: -RA  (light rain)

METAR text: PTPN 171950Z 26006KT 15SM BKN017TCU OVC130 25/24 A2981 RMK TCU ALQDS
Conditions at: PTPN (POHNPEI AIRPORT , FM) observed 1950 UTC 17 August 2019
Temperature: 25.0°C (77°F)
Dewpoint: 24.0°C (75°F) [RH = 94%]
Pressure (altimeter): 29.81 inches Hg (1009.6 mb)
Winds: from the W (260 degrees) at 7 MPH (6 knots; 3.1 m/s)
Visibility: 15 miles (24 km)
Ceiling: 1700 feet AGL
Clouds: broken clouds at 1700 feet AGL
overcast cloud deck at 13000 feet AGL
Weather: no significant weather observed at this time

METAR text: PTPN 171850Z 22009KT 15SM BKN017TCU OVC130 24/24 A2981 RMK TCU ALQDS
Conditions at: PTPN (POHNPEI AIRPORT , FM) observed 1850 UTC 17 August 2019
Temperature: 24.0°C (75°F)
Dewpoint: 24.0°C (75°F) [RH = 100%]
Pressure (altimeter): 29.81 inches Hg (1009.6 mb)
Winds: from the SW (220 degrees) at 10 MPH (9 knots; 4.6 m/s)
Visibility: 15 miles (24 km)
Ceiling: 1700 feet AGL
Clouds: broken clouds at 1700 feet AGL
overcast cloud deck at 13000 feet AGL
Weather: no significant weather observed at this time

METAR text: PTPN 171759Z 18006KT 15SM BKN017TCU OVC130 24/24 A2980 RMK TCU ALQDS
Conditions at: PTPN (POHNPEI AIRPORT , FM) observed 1759 UTC 17 August 2019
Temperature: 24.0°C (75°F)
Dewpoint: 24.0°C (75°F) [RH = 100%]
Pressure (altimeter): 29.80 inches Hg (1009.2 mb)
Winds: from the S (180 degrees) at 7 MPH (6 knots; 3.1 m/s)
Visibility: 15 miles (24 km)
Ceiling: 1700 feet AGL
Clouds: broken clouds at 1700 feet AGL
overcast cloud deck at 13000 feet AGL
Weather: no significant weather observed at this time

METAR text: PTPN 171659Z 17005KT 12SM -RA BKN017TCU OVC130 24/24 A2980 RMK TCU ALQDS
Conditions at: PTPN (POHNPEI AIRPORT , FM) observed 1659 UTC 17 August 2019
Temperature: 24.0°C (75°F)
Dewpoint: 24.0°C (75°F) [RH = 100%]
Pressure (altimeter): 29.80 inches Hg (1009.2 mb)
Winds: from the S (170 degrees) at 6 MPH (5 knots; 2.6 m/s)
Visibility: 12 miles (19 km)
Ceiling: 1700 feet AGL
Clouds: broken clouds at 1700 feet AGL
overcast cloud deck at 13000 feet AGL
Weather: -RA  (light rain)

Forecast for: PTPN (POHNPEI AIRPORT , FM)
Text: PTPN 190313Z 1903/1924 29007KT P6SM VCSH SCT018 BKN130
Forecast period: 0300 UTC 19 August 2019 to 0000 UTC 20 August 2019
Forecast type: FROM: standard forecast or significant change
Winds: from the WNW (290 degrees) at 8 MPH (7 knots; 3.6 m/s)
Visibility: 6 or more miles 10+ km)
Ceiling: 13000 feet AGL
Clouds: scattered clouds at 1800 feet AGL
broken clouds at 13000 feet AGL
Weather: VCSH  (showers in vicinity)
Text: TEMPO 1903/1907 BKN018 BKN130
Forecast period: 0300 to 0700 UTC 19 August 2019
Forecast type: TEMPORARY: The following changes expected for less than half the time period
Visibility: missing
Ceiling: 1800 feet AGL
Clouds: broken clouds at 1800 feet AGL
broken clouds at 13000 feet AGL
Weather: no significant weather forecast for this period